sensor_id;sensor_type;location;lat;lon;timestamp;temperature;humidity
22418;DHT22;11376;50.932;4.442;2022-12-18T00:01:05;-3.80;99.90
22418;DHT22;11376;50.932;4.442;2022-12-18T00:03:34;-3.80;99.90
22418;DHT22;11376;50.932;4.442;2022-12-18T00:06:00;-3.90;99.90
22418;DHT22;11376;50.932;4.442;2022-12-18T00:08:26;-4.10;99.90
22418;DHT22;11376;50.932;4.442;2022-12-18T00:10:51;-4.10;99.90
22418;DHT22;11376;50.932;4.442;2022-12-18T00:13:17;-4.20;99.90
22418;DHT22;11376;50.932;4.442;2022-12-18T00:15:42;-4.20;99.90
22418;DHT22;11376;50.932;4.442;2022-12-18T00:18:08;-4.30;99.90
22418;DHT22;11376;50.932;4.442;2022-12-18T00:20:38;-4.30;99.90
22418;DHT22;11376;50.932;4.442;2022-12-18T00:23:04;-4.20;99.90
22418;DHT22;11376;50.932;4.442;2022-12-18T00:25:33;-4.20;99.90
22418;DHT22;11376;50.932;4.442;2022-12-18T00:28:00;-4.30;99.90
22418;DHT22;11376;50.932;4.442;2022-12-18T00:30:25;-4.40;99.90
22418;DHT22;11376;50.932;4.442;2022-12-18T00:32:51;-4.50;99.90
22418;DHT22;11376;50.932;4.442;2022-12-18T00:35:16;-4.50;99.90
22418;DHT22;11376;50.932;4.442;2022-12-18T00:37:42;-4.50;99.90
22418;DHT22;11376;50.932;4.442;2022-12-18T00:40:08;-4.60;99.90
22418;DHT22;11376;50.932;4.442;2022-12-18T00:42:35;-4.50;99.90
22418;DHT22;11376;50.932;4.442;2022-12-18T00:45:19;-4.50;99.90
22418;DHT22;11376;50.932;4.442;2022-12-18T00:47:45;-4.50;99.90
22418;DHT22;11376;50.932;4.442;2022-12-18T00:50:10;-4.50;99.90
22418;DHT22;11376;50.932;4.442;2022-12-18T00:52:36;-4.60;99.90
22418;DHT22;11376;50.932;4.442;2022-12-18T00:55:02;-4.60;99.90
22418;DHT22;11376;50.932;4.442;2022-12-18T00:57:27;-4.60;99.90
22418;DHT22;11376;50.932;4.442;2022-12-18T00:59:53;-4.60;99.90
22418;DHT22;11376;50.932;4.442;2022-12-18T01:02:18;-4.70;99.90
22418;DHT22;11376;50.932;4.442;2022-12-18T01:04:44;-4.70;99.90
22418;DHT22;11376;50.932;4.442;2022-12-18T01:07:09;-4.80;99.90
22418;DHT22;11376;50.932;4.442;2022-12-18T01:09:35;-4.70;99.90
22418;DHT22;11376;50.932;4.442;2022-12-18T01:12:00;-4.70;99.90
22418;DHT22;11376;50.932;4.442;2022-12-18T01:14:26;-4.70;99.90
22418;DHT22;11376;50.932;4.442;2022-12-18T01:16:52;-4.80;99.90
22418;DHT22;11376;50.932;4.442;2022-12-18T01:19:17;-4.80;99.90
22418;DHT22;11376;50.932;4.442;2022-12-18T01:21:43;-4.60;99.90
22418;DHT22;11376;50.932;4.442;2022-12-18T01:24:11;-4.80;99.90
22418;DHT22;11376;50.932;4.442;2022-12-18T01:26:37;-4.90;99.90
22418;DHT22;11376;50.932;4.442;2022-12-18T01:29:03;-5.00;99.90
22418;DHT22;11376;50.932;4.442;2022-12-18T01:31:31;-5.00;99.90
22418;DHT22;11376;50.932;4.442;2022-12-18T01:33:59;-5.00;99.90
22418;DHT22;11376;50.932;4.442;2022-12-18T01:36:28;-5.10;99.90
22418;DHT22;11376;50.932;4.442;2022-12-18T01:38:55;-5.10;99.90
22418;DHT22;11376;50.932;4.442;2022-12-18T01:41:23;-5.10;99.90
22418;DHT22;11376;50.932;4.442;2022-12-18T01:43:55;-5.10;99.90
22418;DHT22;11376;50.932;4.442;2022-12-18T01:46:23;-5.10;99.90
22418;DHT22;11376;50.932;4.442;2022-12-18T01:48:52;-5.00;99.90
22418;DHT22;11376;50.932;4.442;2022-12-18T01:51:18;-5.00;99.90
22418;DHT22;11376;50.932;4.442;2022-12-18T01:53:44;-5.10;99.90
22418;DHT22;11376;50.932;4.442;2022-12-18T01:56:14;-5.10;99.90
22418;DHT22;11376;50.932;4.442;2022-12-18T01:58:53;-5.10;99.90
22418;DHT22;11376;50.932;4.442;2022-12-18T02:01:21;-5.20;99.90
22418;DHT22;11376;50.932;4.442;2022-12-18T02:03:47;-5.20;99.90
22418;DHT22;11376;50.932;4.442;2022-12-18T02:06:16;-5.20;99.90
22418;DHT22;11376;50.932;4.442;2022-12-18T02:14:00;-5.20;99.90
22418;DHT22;11376;50.932;4.442;2022-12-18T02:27:37;-5.30;99.90
22418;DHT22;11376;50.932;4.442;2022-12-18T02:30:06;-5.40;99.90
22418;DHT22;11376;50.932;4.442;2022-12-18T02:32:37;-5.30;99.90
22418;DHT22;11376;50.932;4.442;2022-12-18T02:35:06;-5.30;99.90
22418;DHT22;11376;50.932;4.442;2022-12-18T02:37:34;-5.40;99.90
22418;DHT22;11376;50.932;4.442;2022-12-18T02:40:02;-5.20;99.90
22418;DHT22;11376;50.932;4.442;2022-12-18T02:42:28;-5.40;99.90
22418;DHT22;11376;50.932;4.442;2022-12-18T02:44:54;-5.50;99.90
22418;DHT22;11376;50.932;4.442;2022-12-18T02:47:22;-5.50;99.90
22418;DHT22;11376;50.932;4.442;2022-12-18T02:52:41;-5.50;99.90
22418;DHT22;11376;50.932;4.442;2022-12-18T02:57:52;-5.50;99.90
22418;DHT22;11376;50.932;4.442;2022-12-18T03:00:22;-5.50;99.90
22418;DHT22;11376;50.932;4.442;2022-12-18T03:02:56;-5.50;99.90
22418;DHT22;11376;50.932;4.442;2022-12-18T03:05:33;-5.60;99.90
22418;DHT22;11376;50.932;4.442;2022-12-18T03:08:14;-5.50;99.90
22418;DHT22;11376;50.932;4.442;2022-12-18T03:10:49;-5.50;99.90
22418;DHT22;11376;50.932;4.442;2022-12-18T03:13:23;-5.50;99.90
22418;DHT22;11376;50.932;4.442;2022-12-18T03:15:55;-5.50;99.90
22418;DHT22;11376;50.932;4.442;2022-12-18T03:18:34;-5.50;99.90
22418;DHT22;11376;50.932;4.442;2022-12-18T03:21:03;-5.60;99.90
22418;DHT22;11376;50.932;4.442;2022-12-18T03:23:34;-5.40;99.90
22418;DHT22;11376;50.932;4.442;2022-12-18T03:26:03;-5.40;99.90
22418;DHT22;11376;50.932;4.442;2022-12-18T03:28:34;-5.40;99.90
22418;DHT22;11376;50.932;4.442;2022-12-18T03:31:04;-5.30;99.90
22418;DHT22;11376;50.932;4.442;2022-12-18T03:33:45;-5.40;99.90
22418;DHT22;11376;50.932;4.442;2022-12-18T03:36:11;-5.50;99.90
22418;DHT22;11376;50.932;4.442;2022-12-18T03:38:37;-5.50;99.90
22418;DHT22;11376;50.932;4.442;2022-12-18T03:41:29;-5.40;99.90
22418;DHT22;11376;50.932;4.442;2022-12-18T03:47:14;-5.50;99.90
22418;DHT22;11376;50.932;4.442;2022-12-18T03:52:33;-5.60;99.90
22418;DHT22;11376;50.932;4.442;2022-12-18T03:55:01;-5.50;99.90
22418;DHT22;11376;50.932;4.442;2022-12-18T03:57:29;-5.50;99.90
22418;DHT22;11376;50.932;4.442;2022-12-18T04:00:10;-5.60;99.90
22418;DHT22;11376;50.932;4.442;2022-12-18T04:02:40;-5.60;99.90
22418;DHT22;11376;50.932;4.442;2022-12-18T04:05:08;-5.70;99.90
22418;DHT22;11376;50.932;4.442;2022-12-18T04:07:36;-5.80;99.90
22418;DHT22;11376;50.932;4.442;2022-12-18T04:10:04;-5.90;99.90
22418;DHT22;11376;50.932;4.442;2022-12-18T04:12:31;-6.00;99.90
22418;DHT22;11376;50.932;4.442;2022-12-18T04:14:57;-6.00;99.90
22418;DHT22;11376;50.932;4.442;2022-12-18T04:17:23;-6.00;99.90
22418;DHT22;11376;50.932;4.442;2022-12-18T04:19:49;-5.90;99.90
22418;DHT22;11376;50.932;4.442;2022-12-18T04:22:15;-5.90;99.90
22418;DHT22;11376;50.932;4.442;2022-12-18T04:24:40;-5.80;99.90
22418;DHT22;11376;50.932;4.442;2022-12-18T04:27:06;-5.80;99.90
22418;DHT22;11376;50.932;4.442;2022-12-18T04:29:32;-5.70;99.90
22418;DHT22;11376;50.932;4.442;2022-12-18T04:31:58;-5.60;99.90
22418;DHT22;11376;50.932;4.442;2022-12-18T04:34:23;-5.70;99.90
22418;DHT22;11376;50.932;4.442;2022-12-18T04:36:49;-5.80;99.90
22418;DHT22;11376;50.932;4.442;2022-12-18T04:39:15;-5.90;99.90
22418;DHT22;11376;50.932;4.442;2022-12-18T04:41:40;-5.80;99.90
22418;DHT22;11376;50.932;4.442;2022-12-18T04:44:06;-5.80;99.90
22418;DHT22;11376;50.932;4.442;2022-12-18T04:46:32;-5.90;99.90
22418;DHT22;11376;50.932;4.442;2022-12-18T04:48:57;-5.90;99.90
22418;DHT22;11376;50.932;4.442;2022-12-18T04:51:23;-5.90;99.90
22418;DHT22;11376;50.932;4.442;2022-12-18T04:53:48;-5.70;99.90
22418;DHT22;11376;50.932;4.442;2022-12-18T04:56:15;-5.70;99.90
22418;DHT22;11376;50.932;4.442;2022-12-18T04:58:42;-5.80;99.90
22418;DHT22;11376;50.932;4.442;2022-12-18T05:01:10;-5.70;99.90
22418;DHT22;11376;50.932;4.442;2022-12-18T05:03:36;-5.70;99.90
22418;DHT22;11376;50.932;4.442;2022-12-18T05:06:03;-5.70;99.90
22418;DHT22;11376;50.932;4.442;2022-12-18T05:08:29;-5.70;99.90
22418;DHT22;11376;50.932;4.442;2022-12-18T05:10:59;-5.70;99.90
22418;DHT22;11376;50.932;4.442;2022-12-18T05:13:25;-5.70;99.90
22418;DHT22;11376;50.932;4.442;2022-12-18T05:15:52;-5.70;99.90
22418;DHT22;11376;50.932;4.442;2022-12-18T05:18:18;-5.70;99.90
22418;DHT22;11376;50.932;4.442;2022-12-18T05:20:43;-5.70;99.90
22418;DHT22;11376;50.932;4.442;2022-12-18T05:23:09;-5.60;99.90
22418;DHT22;11376;50.932;4.442;2022-12-18T05:25:34;-5.50;99.90
22418;DHT22;11376;50.932;4.442;2022-12-18T05:28:00;-5.60;99.90
22418;DHT22;11376;50.932;4.442;2022-12-18T05:30:26;-5.60;99.90
22418;DHT22;11376;50.932;4.442;2022-12-18T05:32:51;-5.60;99.90
22418;DHT22;11376;50.932;4.442;2022-12-18T05:35:17;-5.60;99.90
22418;DHT22;11376;50.932;4.442;2022-12-18T05:37:42;-5.60;99.90
22418;DHT22;11376;50.932;4.442;2022-12-18T05:40:09;-5.50;99.90
22418;DHT22;11376;50.932;4.442;2022-12-18T05:42:34;-5.40;99.90
22418;DHT22;11376;50.932;4.442;2022-12-18T05:45:00;-5.60;99.90
22418;DHT22;11376;50.932;4.442;2022-12-18T05:47:27;-5.80;99.90
22418;DHT22;11376;50.932;4.442;2022-12-18T05:49:52;-5.90;99.90
22418;DHT22;11376;50.932;4.442;2022-12-18T05:52:18;-5.80;99.90
22418;DHT22;11376;50.932;4.442;2022-12-18T05:54:44;-5.80;99.90
22418;DHT22;11376;50.932;4.442;2022-12-18T05:57:09;-5.80;99.90
22418;DHT22;11376;50.932;4.442;2022-12-18T05:59:35;-5.70;99.90
22418;DHT22;11376;50.932;4.442;2022-12-18T06:02:01;-5.70;99.90
22418;DHT22;11376;50.932;4.442;2022-12-18T06:04:27;-5.70;99.90
22418;DHT22;11376;50.932;4.442;2022-12-18T06:06:54;-5.70;99.90
22418;DHT22;11376;50.932;4.442;2022-12-18T06:09:19;-5.80;99.90
22418;DHT22;11376;50.932;4.442;2022-12-18T06:11:45;-5.80;99.90
22418;DHT22;11376;50.932;4.442;2022-12-18T06:14:11;-5.90;99.90
22418;DHT22;11376;50.932;4.442;2022-12-18T06:16:36;-6.00;99.90
22418;DHT22;11376;50.932;4.442;2022-12-18T06:19:04;-6.10;99.90
22418;DHT22;11376;50.932;4.442;2022-12-18T06:21:30;-6.00;99.90
22418;DHT22;11376;50.932;4.442;2022-12-18T06:23:56;-6.00;99.90
22418;DHT22;11376;50.932;4.442;2022-12-18T06:26:22;-5.80;99.90
22418;DHT22;11376;50.932;4.442;2022-12-18T06:28:47;-5.80;99.90
22418;DHT22;11376;50.932;4.442;2022-12-18T06:31:13;-5.80;99.90
22418;DHT22;11376;50.932;4.442;2022-12-18T06:33:39;-5.70;99.90
22418;DHT22;11376;50.932;4.442;2022-12-18T06:36:09;-5.70;99.90
22418;DHT22;11376;50.932;4.442;2022-12-18T06:38:37;-5.70;99.90
22418;DHT22;11376;50.932;4.442;2022-12-18T06:41:10;-5.60;99.90
22418;DHT22;11376;50.932;4.442;2022-12-18T06:43:35;-5.60;99.90
22418;DHT22;11376;50.932;4.442;2022-12-18T06:46:02;-5.60;99.90
22418;DHT22;11376;50.932;4.442;2022-12-18T06:48:28;-5.50;99.90
22418;DHT22;11376;50.932;4.442;2022-12-18T06:50:54;-5.40;99.90
22418;DHT22;11376;50.932;4.442;2022-12-18T06:53:19;-5.40;99.90
22418;DHT22;11376;50.932;4.442;2022-12-18T06:55:45;-5.30;99.90
22418;DHT22;11376;50.932;4.442;2022-12-18T06:58:10;-5.30;99.90
22418;DHT22;11376;50.932;4.442;2022-12-18T07:00:36;-5.40;99.90
22418;DHT22;11376;50.932;4.442;2022-12-18T07:03:02;-5.40;99.90
22418;DHT22;11376;50.932;4.442;2022-12-18T07:05:27;-5.40;99.90
22418;DHT22;11376;50.932;4.442;2022-12-18T07:07:53;-5.20;99.90
22418;DHT22;11376;50.932;4.442;2022-12-18T07:10:18;-5.10;99.90
22418;DHT22;11376;50.932;4.442;2022-12-18T07:12:44;-5.10;99.90
22418;DHT22;11376;50.932;4.442;2022-12-18T07:15:10;-5.20;99.90
22418;DHT22;11376;50.932;4.442;2022-12-18T07:17:35;-5.30;99.90
22418;DHT22;11376;50.932;4.442;2022-12-18T07:20:01;-5.40;99.90
22418;DHT22;11376;50.932;4.442;2022-12-18T07:22:27;-5.30;99.90
22418;DHT22;11376;50.932;4.442;2022-12-18T07:24:52;-5.30;99.90
22418;DHT22;11376;50.932;4.442;2022-12-18T07:27:18;-5.20;99.90
22418;DHT22;11376;50.932;4.442;2022-12-18T07:29:44;-5.10;99.90
22418;DHT22;11376;50.932;4.442;2022-12-18T07:32:09;-5.20;99.90
22418;DHT22;11376;50.932;4.442;2022-12-18T07:34:35;-5.40;99.90
22418;DHT22;11376;50.932;4.442;2022-12-18T07:37:00;-5.40;99.90
22418;DHT22;11376;50.932;4.442;2022-12-18T07:39:26;-5.40;99.90
22418;DHT22;11376;50.932;4.442;2022-12-18T07:41:52;-5.40;99.90
22418;DHT22;11376;50.932;4.442;2022-12-18T07:44:36;-5.40;99.90
22418;DHT22;11376;50.932;4.442;2022-12-18T07:47:02;-5.30;99.90
22418;DHT22;11376;50.932;4.442;2022-12-18T07:49:28;-5.10;99.90
22418;DHT22;11376;50.932;4.442;2022-12-18T07:51:57;-5.10;99.90
22418;DHT22;11376;50.932;4.442;2022-12-18T07:54:23;-5.20;99.90
22418;DHT22;11376;50.932;4.442;2022-12-18T07:56:50;-5.20;99.90
22418;DHT22;11376;50.932;4.442;2022-12-18T07:59:15;-5.20;99.90
22418;DHT22;11376;50.932;4.442;2022-12-18T08:01:41;-5.20;99.90
22418;DHT22;11376;50.932;4.442;2022-12-18T08:04:07;-5.20;99.90
22418;DHT22;11376;50.932;4.442;2022-12-18T08:06:32;-5.20;99.90
22418;DHT22;11376;50.932;4.442;2022-12-18T08:08:58;-5.10;99.90
22418;DHT22;11376;50.932;4.442;2022-12-18T08:11:25;-5.10;99.90
22418;DHT22;11376;50.932;4.442;2022-12-18T08:13:51;-5.00;99.90
22418;DHT22;11376;50.932;4.442;2022-12-18T08:16:17;-4.90;99.90
22418;DHT22;11376;50.932;4.442;2022-12-18T08:18:43;-5.00;99.90
22418;DHT22;11376;50.932;4.442;2022-12-18T08:21:13;-5.00;99.90
22418;DHT22;11376;50.932;4.442;2022-12-18T08:23:38;-4.90;99.90
22418;DHT22;11376;50.932;4.442;2022-12-18T08:26:05;-4.80;99.90
22418;DHT22;11376;50.932;4.442;2022-12-18T08:28:30;-4.60;99.90
22418;DHT22;11376;50.932;4.442;2022-12-18T08:30:56;-4.30;99.90
22418;DHT22;11376;50.932;4.442;2022-12-18T08:33:22;-4.20;99.90
22418;DHT22;11376;50.932;4.442;2022-12-18T08:35:47;-4.10;99.90
22418;DHT22;11376;50.932;4.442;2022-12-18T08:38:13;-4.00;99.90
22418;DHT22;11376;50.932;4.442;2022-12-18T08:40:38;-3.90;99.90
22418;DHT22;11376;50.932;4.442;2022-12-18T08:43:04;-3.70;99.90
22418;DHT22;11376;50.932;4.442;2022-12-18T08:45:48;-3.50;99.90
22418;DHT22;11376;50.932;4.442;2022-12-18T08:48:14;-3.30;99.90
22418;DHT22;11376;50.932;4.442;2022-12-18T08:50:40;-3.20;99.90
22418;DHT22;11376;50.932;4.442;2022-12-18T08:53:06;-3.10;99.90
22418;DHT22;11376;50.932;4.442;2022-12-18T08:55:31;-2.90;99.90
22418;DHT22;11376;50.932;4.442;2022-12-18T08:57:57;-2.80;99.90
22418;DHT22;11376;50.932;4.442;2022-12-18T09:00:22;-2.60;99.90
22418;DHT22;11376;50.932;4.442;2022-12-18T09:02:48;-2.40;99.90
22418;DHT22;11376;50.932;4.442;2022-12-18T09:05:14;-2.30;99.90
22418;DHT22;11376;50.932;4.442;2022-12-18T09:07:39;-2.20;99.90
22418;DHT22;11376;50.932;4.442;2022-12-18T09:10:05;-1.90;99.90
22418;DHT22;11376;50.932;4.442;2022-12-18T09:12:31;-1.60;99.90
22418;DHT22;11376;50.932;4.442;2022-12-18T09:14:57;-1.40;99.90
22418;DHT22;11376;50.932;4.442;2022-12-18T09:17:22;-1.50;99.90
22418;DHT22;11376;50.932;4.442;2022-12-18T09:19:48;-1.40;99.90
22418;DHT22;11376;50.932;4.442;2022-12-18T09:22:14;-1.70;99.90
22418;DHT22;11376;50.932;4.442;2022-12-18T09:24:40;-1.80;99.90
22418;DHT22;11376;50.932;4.442;2022-12-18T09:27:06;-1.60;99.90
22418;DHT22;11376;50.932;4.442;2022-12-18T09:29:32;-1.30;99.90
22418;DHT22;11376;50.932;4.442;2022-12-18T09:31:58;-1.00;99.90
22418;DHT22;11376;50.932;4.442;2022-12-18T09:34:23;-0.80;99.90
22418;DHT22;11376;50.932;4.442;2022-12-18T09:36:50;-0.70;99.90
22418;DHT22;11376;50.932;4.442;2022-12-18T09:39:15;-0.60;99.90
22418;DHT22;11376;50.932;4.442;2022-12-18T09:41:54;-0.50;99.90
22418;DHT22;11376;50.932;4.442;2022-12-18T09:44:39;-0.30;99.90
22418;DHT22;11376;50.932;4.442;2022-12-18T09:47:24;-0.20;99.90
22418;DHT22;11376;50.932;4.442;2022-12-18T09:50:03;-0.50;99.90
22418;DHT22;11376;50.932;4.442;2022-12-18T09:52:30;-0.40;99.90
22418;DHT22;11376;50.932;4.442;2022-12-18T09:55:09;-0.30;99.90
22418;DHT22;11376;50.932;4.442;2022-12-18T09:57:42;-0.10;99.90
22418;DHT22;11376;50.932;4.442;2022-12-18T10:00:20;0.00;99.90
22418;DHT22;11376;50.932;4.442;2022-12-18T10:02:47;0.10;99.90
22418;DHT22;11376;50.932;4.442;2022-12-18T10:05:20;0.20;99.90
22418;DHT22;11376;50.932;4.442;2022-12-18T10:08:08;0.30;99.90
22418;DHT22;11376;50.932;4.442;2022-12-18T10:10:57;0.40;99.90
22418;DHT22;11376;50.932;4.442;2022-12-18T10:13:41;0.20;99.90
22418;DHT22;11376;50.932;4.442;2022-12-18T10:16:17;0.40;99.90
22418;DHT22;11376;50.932;4.442;2022-12-18T10:22:02;0.80;99.90
22418;DHT22;11376;50.932;4.442;2022-12-18T10:24:58;0.70;99.90
22418;DHT22;11376;50.932;4.442;2022-12-18T10:27:26;0.70;99.90
22418;DHT22;11376;50.932;4.442;2022-12-18T10:29:53;0.50;99.90
22418;DHT22;11376;50.932;4.442;2022-12-18T10:32:24;0.30;99.90
22418;DHT22;11376;50.932;4.442;2022-12-18T10:34:58;0.30;99.90
22418;DHT22;11376;50.932;4.442;2022-12-18T10:37:26;0.40;99.90
22418;DHT22;11376;50.932;4.442;2022-12-18T10:40:13;0.60;99.90
22418;DHT22;11376;50.932;4.442;2022-12-18T10:42:39;0.80;99.90
22418;DHT22;11376;50.932;4.442;2022-12-18T10:45:16;1.00;99.90
22418;DHT22;11376;50.932;4.442;2022-12-18T10:47:47;1.30;99.90
22418;DHT22;11376;50.932;4.442;2022-12-18T10:50:32;1.30;99.90
22418;DHT22;11376;50.932;4.442;2022-12-18T10:53:00;1.20;99.90
22418;DHT22;11376;50.932;4.442;2022-12-18T10:55:39;1.40;99.90
22418;DHT22;11376;50.932;4.442;2022-12-18T10:58:33;1.60;99.90
22418;DHT22;11376;50.932;4.442;2022-12-18T11:01:04;1.80;99.90
22418;DHT22;11376;50.932;4.442;2022-12-18T11:03:34;1.80;99.90
22418;DHT22;11376;50.932;4.442;2022-12-18T11:08:41;1.50;99.90
22418;DHT22;11376;50.932;4.442;2022-12-18T11:11:23;1.50;99.90
22418;DHT22;11376;50.932;4.442;2022-12-18T11:16:28;1.80;99.90
22418;DHT22;11376;50.932;4.442;2022-12-18T11:19:13;1.80;99.90
22418;DHT22;11376;50.932;4.442;2022-12-18T11:21:41;1.90;99.90
22418;DHT22;11376;50.932;4.442;2022-12-18T11:24:32;2.00;99.90
22418;DHT22;11376;50.932;4.442;2022-12-18T11:27:01;1.60;99.90
22418;DHT22;11376;50.932;4.442;2022-12-18T11:29:38;1.60;99.90
22418;DHT22;11376;50.932;4.442;2022-12-18T11:32:31;1.80;99.90
22418;DHT22;11376;50.932;4.442;2022-12-18T11:35:07;1.70;99.90
22418;DHT22;11376;50.932;4.442;2022-12-18T11:37:36;1.90;99.90
22418;DHT22;11376;50.932;4.442;2022-12-18T11:40:11;2.10;99.90
22418;DHT22;11376;50.932;4.442;2022-12-18T11:42:48;2.20;99.90
22418;DHT22;11376;50.932;4.442;2022-12-18T11:45:28;2.30;99.90
22418;DHT22;11376;50.932;4.442;2022-12-18T11:50:56;2.30;99.90
22418;DHT22;11376;50.932;4.442;2022-12-18T11:53:26;2.40;99.90
22418;DHT22;11376;50.932;4.442;2022-12-18T12:01:48;2.10;99.90
22418;DHT22;11376;50.932;4.442;2022-12-18T12:10:55;2.90;99.90
22418;DHT22;11376;50.932;4.442;2022-12-18T12:13:40;2.90;99.90
22418;DHT22;11376;50.932;4.442;2022-12-18T12:16:26;2.90;99.90
22418;DHT22;11376;50.932;4.442;2022-12-18T12:21:42;3.30;99.90
22418;DHT22;11376;50.932;4.442;2022-12-18T12:24:31;3.30;99.90
22418;DHT22;11376;50.932;4.442;2022-12-18T12:27:16;3.30;99.90
22418;DHT22;11376;50.932;4.442;2022-12-18T12:30:17;3.20;99.90
22418;DHT22;11376;50.932;4.442;2022-12-18T12:32:53;2.90;99.90
22418;DHT22;11376;50.932;4.442;2022-12-18T12:35:31;2.80;99.90
22418;DHT22;11376;50.932;4.442;2022-12-18T12:38:23;2.80;99.90
22418;DHT22;11376;50.932;4.442;2022-12-18T12:41:01;2.80;99.90
22418;DHT22;11376;50.932;4.442;2022-12-18T12:48:40;2.60;99.90
22418;DHT22;11376;50.932;4.442;2022-12-18T12:51:56;2.90;99.90
22418;DHT22;11376;50.932;4.442;2022-12-18T12:54:05;2.80;99.90
22418;DHT22;11376;50.932;4.442;2022-12-18T12:59:15;2.60;99.90
22418;DHT22;11376;50.932;4.442;2022-12-18T13:01:58;2.90;99.90
22418;DHT22;11376;50.932;4.442;2022-12-18T13:04:34;2.80;99.90
22418;DHT22;11376;50.932;4.442;2022-12-18T13:13:05;2.30;99.90
22418;DHT22;11376;50.932;4.442;2022-12-18T13:15:47;2.20;99.90
22418;DHT22;11376;50.932;4.442;2022-12-18T13:18:24;2.30;99.90
22418;DHT22;11376;50.932;4.442;2022-12-18T13:21:02;2.20;99.90
22418;DHT22;11376;50.932;4.442;2022-12-18T13:23:38;2.20;99.90
22418;DHT22;11376;50.932;4.442;2022-12-18T13:36:41;2.50;99.90
22418;DHT22;11376;50.932;4.442;2022-12-18T13:41:52;2.40;99.90
22418;DHT22;11376;50.932;4.442;2022-12-18T13:44:37;2.30;99.90
22418;DHT22;11376;50.932;4.442;2022-12-18T13:47:28;2.30;99.90
22418;DHT22;11376;50.932;4.442;2022-12-18T13:49:56;2.30;99.90
22418;DHT22;11376;50.932;4.442;2022-12-18T13:52:25;2.40;99.90
22418;DHT22;11376;50.932;4.442;2022-12-18T13:54:53;2.40;99.90
22418;DHT22;11376;50.932;4.442;2022-12-18T13:57:29;2.40;99.90
22418;DHT22;11376;50.932;4.442;2022-12-18T13:59:56;2.40;99.90
22418;DHT22;11376;50.932;4.442;2022-12-18T14:02:27;2.30;99.90
22418;DHT22;11376;50.932;4.442;2022-12-18T14:04:54;2.30;99.90
22418;DHT22;11376;50.932;4.442;2022-12-18T14:07:23;2.20;99.90
22418;DHT22;11376;50.932;4.442;2022-12-18T14:09:59;2.40;99.90
22418;DHT22;11376;50.932;4.442;2022-12-18T14:12:31;2.40;99.90
22418;DHT22;11376;50.932;4.442;2022-12-18T14:15:32;2.50;99.90
22418;DHT22;11376;50.932;4.442;2022-12-18T14:18:00;2.40;99.90
22418;DHT22;11376;50.932;4.442;2022-12-18T14:20:28;2.30;99.90
22418;DHT22;11376;50.932;4.442;2022-12-18T14:22:56;2.10;99.90
22418;DHT22;11376;50.932;4.442;2022-12-18T14:25:24;2.10;99.90
22418;DHT22;11376;50.932;4.442;2022-12-18T14:28:09;2.00;99.90
22418;DHT22;11376;50.932;4.442;2022-12-18T14:30:39;2.00;99.90
22418;DHT22;11376;50.932;4.442;2022-12-18T14:33:09;1.90;99.90
22418;DHT22;11376;50.932;4.442;2022-12-18T14:35:41;1.90;99.90
22418;DHT22;11376;50.932;4.442;2022-12-18T14:40:55;1.90;99.90
22418;DHT22;11376;50.932;4.442;2022-12-18T14:43:22;1.90;99.90
22418;DHT22;11376;50.932;4.442;2022-12-18T14:45:48;1.80;99.90
22418;DHT22;11376;50.932;4.442;2022-12-18T14:51:01;1.70;99.90
22418;DHT22;11376;50.932;4.442;2022-12-18T14:53:43;1.70;99.90
22418;DHT22;11376;50.932;4.442;2022-12-18T14:56:33;1.70;99.90
22418;DHT22;11376;50.932;4.442;2022-12-18T14:59:13;1.70;99.90
22418;DHT22;11376;50.932;4.442;2022-12-18T15:04:46;1.60;99.90
22418;DHT22;11376;50.932;4.442;2022-12-18T15:07:17;1.60;99.90
22418;DHT22;11376;50.932;4.442;2022-12-18T15:10:07;1.60;99.90
22418;DHT22;11376;50.932;4.442;2022-12-18T15:12:41;1.60;99.90
22418;DHT22;11376;50.932;4.442;2022-12-18T15:20:58;1.60;99.90
22418;DHT22;11376;50.932;4.442;2022-12-18T15:26:10;1.60;99.90
22418;DHT22;11376;50.932;4.442;2022-12-18T15:28:39;1.60;99.90
22418;DHT22;11376;50.932;4.442;2022-12-18T15:36:15;1.50;99.90
22418;DHT22;11376;50.932;4.442;2022-12-18T15:38:41;1.60;99.90
22418;DHT22;11376;50.932;4.442;2022-12-18T15:41:13;1.60;99.90
22418;DHT22;11376;50.932;4.442;2022-12-18T15:43:39;1.60;99.90
22418;DHT22;11376;50.932;4.442;2022-12-18T15:46:19;1.60;99.90
22418;DHT22;11376;50.932;4.442;2022-12-18T15:48:50;1.70;99.90
22418;DHT22;11376;50.932;4.442;2022-12-18T15:51:19;1.70;99.90
22418;DHT22;11376;50.932;4.442;2022-12-18T15:53:46;1.70;99.90
22418;DHT22;11376;50.932;4.442;2022-12-18T15:56:14;1.70;99.90
22418;DHT22;11376;50.932;4.442;2022-12-18T15:58:59;1.70;99.90
22418;DHT22;11376;50.932;4.442;2022-12-18T16:01:27;1.70;99.90
22418;DHT22;11376;50.932;4.442;2022-12-18T16:03:53;1.70;99.90
22418;DHT22;11376;50.932;4.442;2022-12-18T16:06:20;1.70;99.90
22418;DHT22;11376;50.932;4.442;2022-12-18T16:08:46;1.70;99.90
22418;DHT22;11376;50.932;4.442;2022-12-18T16:11:27;1.70;99.90
22418;DHT22;11376;50.932;4.442;2022-12-18T16:14:21;1.70;99.90
22418;DHT22;11376;50.932;4.442;2022-12-18T16:16:51;1.70;99.90
22418;DHT22;11376;50.932;4.442;2022-12-18T16:19:17;1.70;99.90
22418;DHT22;11376;50.932;4.442;2022-12-18T16:21:43;1.70;99.90
22418;DHT22;11376;50.932;4.442;2022-12-18T16:26:42;1.70;99.90
22418;DHT22;11376;50.932;4.442;2022-12-18T16:29:09;1.70;99.90
22418;DHT22;11376;50.932;4.442;2022-12-18T16:31:34;1.70;99.90
22418;DHT22;11376;50.932;4.442;2022-12-18T16:34:23;1.70;99.90
22418;DHT22;11376;50.932;4.442;2022-12-18T16:36:51;1.70;99.90
22418;DHT22;11376;50.932;4.442;2022-12-18T16:39:17;1.70;99.90
22418;DHT22;11376;50.932;4.442;2022-12-18T16:41:43;1.80;99.90
22418;DHT22;11376;50.932;4.442;2022-12-18T16:44:08;1.90;99.90
22418;DHT22;11376;50.932;4.442;2022-12-18T16:46:36;1.90;99.90
22418;DHT22;11376;50.932;4.442;2022-12-18T16:49:01;2.00;99.90
22418;DHT22;11376;50.932;4.442;2022-12-18T16:51:27;2.00;99.90
22418;DHT22;11376;50.932;4.442;2022-12-18T16:53:54;1.90;99.90
22418;DHT22;11376;50.932;4.442;2022-12-18T16:56:20;1.90;99.90
22418;DHT22;11376;50.932;4.442;2022-12-18T16:58:51;1.90;99.90
22418;DHT22;11376;50.932;4.442;2022-12-18T17:01:16;2.00;99.90
22418;DHT22;11376;50.932;4.442;2022-12-18T17:03:42;2.00;99.90
22418;DHT22;11376;50.932;4.442;2022-12-18T17:06:08;2.10;99.90
22418;DHT22;11376;50.932;4.442;2022-12-18T17:08:33;2.10;99.90
22418;DHT22;11376;50.932;4.442;2022-12-18T17:11:08;2.10;99.90
22418;DHT22;11376;50.932;4.442;2022-12-18T17:13:33;2.10;99.90
22418;DHT22;11376;50.932;4.442;2022-12-18T17:16:03;2.10;99.90
22418;DHT22;11376;50.932;4.442;2022-12-18T17:18:29;2.20;99.90
22418;DHT22;11376;50.932;4.442;2022-12-18T17:21:03;2.10;99.90
22418;DHT22;11376;50.932;4.442;2022-12-18T17:23:29;2.10;99.90
22418;DHT22;11376;50.932;4.442;2022-12-18T17:25:58;2.20;99.90
22418;DHT22;11376;50.932;4.442;2022-12-18T17:28:26;2.20;99.90
22418;DHT22;11376;50.932;4.442;2022-12-18T17:30:53;2.20;99.90
22418;DHT22;11376;50.932;4.442;2022-12-18T17:33:19;2.20;99.90
22418;DHT22;11376;50.932;4.442;2022-12-18T17:35:45;2.30;99.90
22418;DHT22;11376;50.932;4.442;2022-12-18T17:38:11;2.30;99.90
22418;DHT22;11376;50.932;4.442;2022-12-18T17:40:37;2.20;99.90